Terminal Aerodrome Forecast
Issued by NWS

Home | Current Version | Previous Version | Text Only | Print | Product List | Glossary On
Versions: 1 2 3 4 5 6 7 8 9 10 11 12
000
FTUS45 KRIW 191729
TAFCOD
TAF
KCOD 191729Z 1918/2018 36013KT P6SM SCT020 BKN060
     FM192200 27013G21KT P6SM VCSH SCT050 BKN100
     FM200100 24011G18KT P6SM SCT070 BKN150
     FM200900 23013G21KT P6SM SCT080 BKN200 WS017/26045KT
      AMD LTD TO CLD VIS AND WIND=

USA.gov is the U.S. government's official web portal to all federal, state and local government web resources and services.